sensor_id;sensor_type;location;lat;lon;timestamp;temperature;humidity
18085;DHT22;9169;44.492;11.372;2022-07-23T00:01:18;34.80;26.50
18085;DHT22;9169;44.492;11.372;2022-07-23T00:03:45;34.90;26.60
18085;DHT22;9169;44.492;11.372;2022-07-23T00:06:13;34.90;26.80
18085;DHT22;9169;44.492;11.372;2022-07-23T00:08:40;34.90;26.70
18085;DHT22;9169;44.492;11.372;2022-07-23T00:11:07;34.80;26.70
18085;DHT22;9169;44.492;11.372;2022-07-23T00:13:34;34.80;26.70
18085;DHT22;9169;44.492;11.372;2022-07-23T00:16:01;34.80;26.60
18085;DHT22;9169;44.492;11.372;2022-07-23T00:18:28;34.80;26.50
18085;DHT22;9169;44.492;11.372;2022-07-23T00:20:55;34.80;26.50
18085;DHT22;9169;44.492;11.372;2022-07-23T00:23:23;34.80;26.50
18085;DHT22;9169;44.492;11.372;2022-07-23T00:25:50;34.80;26.50
18085;DHT22;9169;44.492;11.372;2022-07-23T00:28:17;34.80;26.60
18085;DHT22;9169;44.492;11.372;2022-07-23T00:30:44;34.80;26.60
18085;DHT22;9169;44.492;11.372;2022-07-23T00:33:11;34.80;26.60
18085;DHT22;9169;44.492;11.372;2022-07-23T00:35:39;34.80;26.50
18085;DHT22;9169;44.492;11.372;2022-07-23T00:38:07;34.80;26.50
18085;DHT22;9169;44.492;11.372;2022-07-23T00:40:36;34.80;26.50
18085;DHT22;9169;44.492;11.372;2022-07-23T00:43:03;34.80;26.50
18085;DHT22;9169;44.492;11.372;2022-07-23T00:45:30;34.80;26.50
18085;DHT22;9169;44.492;11.372;2022-07-23T00:47:57;34.80;26.40
18085;DHT22;9169;44.492;11.372;2022-07-23T00:50:24;34.70;26.50
18085;DHT22;9169;44.492;11.372;2022-07-23T00:52:51;34.70;26.60
18085;DHT22;9169;44.492;11.372;2022-07-23T00:55:18;34.70;26.50
18085;DHT22;9169;44.492;11.372;2022-07-23T00:57:47;34.60;26.50
18085;DHT22;9169;44.492;11.372;2022-07-23T01:00:14;34.60;26.60
18085;DHT22;9169;44.492;11.372;2022-07-23T01:02:41;34.60;26.50
18085;DHT22;9169;44.492;11.372;2022-07-23T01:05:09;34.60;26.50
18085;DHT22;9169;44.492;11.372;2022-07-23T01:07:35;34.50;26.60
18085;DHT22;9169;44.492;11.372;2022-07-23T01:10:02;34.50;26.60
18085;DHT22;9169;44.492;11.372;2022-07-23T01:12:29;34.50;26.70
18085;DHT22;9169;44.492;11.372;2022-07-23T01:14:58;34.40;26.60
18085;DHT22;9169;44.492;11.372;2022-07-23T01:17:25;34.30;26.60
18085;DHT22;9169;44.492;11.372;2022-07-23T01:19:52;34.30;26.70
18085;DHT22;9169;44.492;11.372;2022-07-23T01:22:19;34.30;26.70
18085;DHT22;9169;44.492;11.372;2022-07-23T01:24:47;34.20;26.70
18085;DHT22;9169;44.492;11.372;2022-07-23T01:27:14;34.20;26.70
18085;DHT22;9169;44.492;11.372;2022-07-23T01:29:43;34.20;26.70
18085;DHT22;9169;44.492;11.372;2022-07-23T01:32:09;34.20;26.90
18085;DHT22;9169;44.492;11.372;2022-07-23T01:34:36;34.20;26.70
18085;DHT22;9169;44.492;11.372;2022-07-23T01:37:03;34.20;26.70
18085;DHT22;9169;44.492;11.372;2022-07-23T01:39:32;34.10;26.80
18085;DHT22;9169;44.492;11.372;2022-07-23T01:42:00;34.10;26.60
18085;DHT22;9169;44.492;11.372;2022-07-23T01:44:27;34.10;26.70
18085;DHT22;9169;44.492;11.372;2022-07-23T01:46:54;34.10;26.70
18085;DHT22;9169;44.492;11.372;2022-07-23T01:49:21;34.10;26.70
18085;DHT22;9169;44.492;11.372;2022-07-23T01:51:48;34.10;26.90
18085;DHT22;9169;44.492;11.372;2022-07-23T01:54:28;34.00;27.10
18085;DHT22;9169;44.492;11.372;2022-07-23T01:56:55;34.00;27.10
18085;DHT22;9169;44.492;11.372;2022-07-23T01:59:23;33.90;27.20
18085;DHT22;9169;44.492;11.372;2022-07-23T02:01:50;33.90;27.00
18085;DHT22;9169;44.492;11.372;2022-07-23T02:04:17;33.90;27.10
18085;DHT22;9169;44.492;11.372;2022-07-23T02:06:44;33.90;27.10
18085;DHT22;9169;44.492;11.372;2022-07-23T02:09:11;33.80;27.10
18085;DHT22;9169;44.492;11.372;2022-07-23T02:11:38;33.80;27.20
18085;DHT22;9169;44.492;11.372;2022-07-23T02:14:05;33.80;27.70
18085;DHT22;9169;44.492;11.372;2022-07-23T02:16:33;33.70;27.50
18085;DHT22;9169;44.492;11.372;2022-07-23T02:19:00;33.70;27.30
18085;DHT22;9169;44.492;11.372;2022-07-23T02:21:27;33.60;27.60
18085;DHT22;9169;44.492;11.372;2022-07-23T02:23:53;33.60;27.40
18085;DHT22;9169;44.492;11.372;2022-07-23T02:26:20;33.60;27.30
18085;DHT22;9169;44.492;11.372;2022-07-23T02:28:47;33.60;27.30
18085;DHT22;9169;44.492;11.372;2022-07-23T02:31:14;33.50;27.40
18085;DHT22;9169;44.492;11.372;2022-07-23T02:33:42;33.50;27.90
18085;DHT22;9169;44.492;11.372;2022-07-23T02:36:09;33.40;27.90
18085;DHT22;9169;44.492;11.372;2022-07-23T02:38:35;33.40;27.40
18085;DHT22;9169;44.492;11.372;2022-07-23T02:41:02;33.40;27.30
18085;DHT22;9169;44.492;11.372;2022-07-23T02:43:29;33.30;27.60
18085;DHT22;9169;44.492;11.372;2022-07-23T02:45:56;33.30;27.70
18085;DHT22;9169;44.492;11.372;2022-07-23T02:48:23;33.30;27.70
18085;DHT22;9169;44.492;11.372;2022-07-23T02:50:51;33.30;27.50
18085;DHT22;9169;44.492;11.372;2022-07-23T02:53:18;33.20;27.60
18085;DHT22;9169;44.492;11.372;2022-07-23T02:55:45;33.10;27.40
18085;DHT22;9169;44.492;11.372;2022-07-23T02:58:12;33.10;27.30
18085;DHT22;9169;44.492;11.372;2022-07-23T03:00:38;33.10;27.40
18085;DHT22;9169;44.492;11.372;2022-07-23T03:03:05;33.10;27.30
18085;DHT22;9169;44.492;11.372;2022-07-23T03:05:32;33.10;27.50
18085;DHT22;9169;44.492;11.372;2022-07-23T03:08:01;33.00;27.50
18085;DHT22;9169;44.492;11.372;2022-07-23T03:10:27;32.90;27.60
18085;DHT22;9169;44.492;11.372;2022-07-23T03:12:54;32.90;27.70
18085;DHT22;9169;44.492;11.372;2022-07-23T03:15:21;32.90;27.70
18085;DHT22;9169;44.492;11.372;2022-07-23T03:17:48;32.80;27.80
18085;DHT22;9169;44.492;11.372;2022-07-23T03:20:15;32.80;27.90
18085;DHT22;9169;44.492;11.372;2022-07-23T03:22:42;32.70;27.80
18085;DHT22;9169;44.492;11.372;2022-07-23T03:25:10;32.70;27.90
18085;DHT22;9169;44.492;11.372;2022-07-23T03:27:37;32.70;27.90
18085;DHT22;9169;44.492;11.372;2022-07-23T03:30:04;32.60;27.80
18085;DHT22;9169;44.492;11.372;2022-07-23T03:32:32;32.60;27.80
18085;DHT22;9169;44.492;11.372;2022-07-23T03:34:58;32.70;27.80
18085;DHT22;9169;44.492;11.372;2022-07-23T03:37:25;32.60;27.80
18085;DHT22;9169;44.492;11.372;2022-07-23T03:39:52;32.60;27.80
18085;DHT22;9169;44.492;11.372;2022-07-23T03:42:20;32.60;28.00
18085;DHT22;9169;44.492;11.372;2022-07-23T03:44:47;32.60;28.00
18085;DHT22;9169;44.492;11.372;2022-07-23T03:47:14;32.60;28.20
18085;DHT22;9169;44.492;11.372;2022-07-23T03:49:42;32.50;28.30
18085;DHT22;9169;44.492;11.372;2022-07-23T03:52:09;32.50;28.10
18085;DHT22;9169;44.492;11.372;2022-07-23T03:54:36;32.40;28.10
18085;DHT22;9169;44.492;11.372;2022-07-23T03:57:02;32.40;28.10
18085;DHT22;9169;44.492;11.372;2022-07-23T03:59:31;32.40;28.10
18085;DHT22;9169;44.492;11.372;2022-07-23T04:01:57;32.40;28.10
18085;DHT22;9169;44.492;11.372;2022-07-23T04:04:24;32.30;28.00
18085;DHT22;9169;44.492;11.372;2022-07-23T04:06:51;32.30;27.90
18085;DHT22;9169;44.492;11.372;2022-07-23T04:09:18;32.40;27.70
18085;DHT22;9169;44.492;11.372;2022-07-23T04:11:45;32.50;27.70
18085;DHT22;9169;44.492;11.372;2022-07-23T04:14:11;32.50;27.70
18085;DHT22;9169;44.492;11.372;2022-07-23T04:16:39;32.50;27.70
18085;DHT22;9169;44.492;11.372;2022-07-23T04:19:06;32.50;28.20
18085;DHT22;9169;44.492;11.372;2022-07-23T04:21:33;32.50;28.00
18085;DHT22;9169;44.492;11.372;2022-07-23T04:24:00;32.50;28.00
18085;DHT22;9169;44.492;11.372;2022-07-23T04:26:27;32.50;28.00
18085;DHT22;9169;44.492;11.372;2022-07-23T04:28:54;32.40;28.10
18085;DHT22;9169;44.492;11.372;2022-07-23T04:31:21;32.40;28.30
18085;DHT22;9169;44.492;11.372;2022-07-23T04:33:49;32.40;28.30
18085;DHT22;9169;44.492;11.372;2022-07-23T04:36:16;32.40;28.20
18085;DHT22;9169;44.492;11.372;2022-07-23T04:38:43;32.40;28.30
18085;DHT22;9169;44.492;11.372;2022-07-23T04:41:10;32.40;28.00
18085;DHT22;9169;44.492;11.372;2022-07-23T04:43:37;32.40;28.00
18085;DHT22;9169;44.492;11.372;2022-07-23T04:46:04;32.40;28.00
18085;DHT22;9169;44.492;11.372;2022-07-23T04:48:31;32.50;28.00
18085;DHT22;9169;44.492;11.372;2022-07-23T04:50:59;32.50;28.00
18085;DHT22;9169;44.492;11.372;2022-07-23T04:53:26;32.50;27.90
18085;DHT22;9169;44.492;11.372;2022-07-23T04:55:53;32.50;27.90
18085;DHT22;9169;44.492;11.372;2022-07-23T04:58:20;32.50;28.10
18085;DHT22;9169;44.492;11.372;2022-07-23T05:00:47;32.60;28.20
18085;DHT22;9169;44.492;11.372;2022-07-23T05:03:14;32.60;28.20
18085;DHT22;9169;44.492;11.372;2022-07-23T05:05:41;32.60;28.20
18085;DHT22;9169;44.492;11.372;2022-07-23T05:08:09;32.60;28.10
18085;DHT22;9169;44.492;11.372;2022-07-23T05:10:35;32.70;28.10
18085;DHT22;9169;44.492;11.372;2022-07-23T05:13:02;32.70;28.10
18085;DHT22;9169;44.492;11.372;2022-07-23T05:15:29;32.80;28.30
18085;DHT22;9169;44.492;11.372;2022-07-23T05:17:56;32.80;28.50
18085;DHT22;9169;44.492;11.372;2022-07-23T05:20:23;32.80;28.40
18085;DHT22;9169;44.492;11.372;2022-07-23T05:22:49;32.80;28.40
18085;DHT22;9169;44.492;11.372;2022-07-23T05:25:18;32.80;28.30
18085;DHT22;9169;44.492;11.372;2022-07-23T05:27:44;32.90;28.50
18085;DHT22;9169;44.492;11.372;2022-07-23T05:30:11;33.00;28.60
18085;DHT22;9169;44.492;11.372;2022-07-23T05:32:39;33.00;28.60
18085;DHT22;9169;44.492;11.372;2022-07-23T05:35:06;33.00;28.50
18085;DHT22;9169;44.492;11.372;2022-07-23T05:37:33;33.10;28.60
18085;DHT22;9169;44.492;11.372;2022-07-23T05:40:00;33.10;28.50
18085;DHT22;9169;44.492;11.372;2022-07-23T05:42:28;33.20;28.50
18085;DHT22;9169;44.492;11.372;2022-07-23T05:44:55;33.20;28.60
18085;DHT22;9169;44.492;11.372;2022-07-23T05:47:22;33.00;28.60
18085;DHT22;9169;44.492;11.372;2022-07-23T05:49:49;33.20;28.60
18085;DHT22;9169;44.492;11.372;2022-07-23T05:52:15;33.20;28.40
18085;DHT22;9169;44.492;11.372;2022-07-23T05:54:42;33.20;28.40
18085;DHT22;9169;44.492;11.372;2022-07-23T05:57:09;33.30;28.50
18085;DHT22;9169;44.492;11.372;2022-07-23T05:59:37;33.30;28.50
18085;DHT22;9169;44.492;11.372;2022-07-23T06:02:04;33.30;29.00
18085;DHT22;9169;44.492;11.372;2022-07-23T06:04:31;33.30;28.30
18085;DHT22;9169;44.492;11.372;2022-07-23T06:06:58;33.40;28.20
18085;DHT22;9169;44.492;11.372;2022-07-23T06:09:24;33.50;28.10
18085;DHT22;9169;44.492;11.372;2022-07-23T06:11:51;33.60;28.10
18085;DHT22;9169;44.492;11.372;2022-07-23T06:14:18;33.70;28.50
18085;DHT22;9169;44.492;11.372;2022-07-23T06:16:46;33.70;28.40
18085;DHT22;9169;44.492;11.372;2022-07-23T06:19:13;33.70;28.60
18085;DHT22;9169;44.492;11.372;2022-07-23T06:21:40;33.70;29.00
18085;DHT22;9169;44.492;11.372;2022-07-23T06:24:06;33.70;28.80
18085;DHT22;9169;44.492;11.372;2022-07-23T06:26:33;33.50;28.80
18085;DHT22;9169;44.492;11.372;2022-07-23T06:29:00;33.70;29.00
18085;DHT22;9169;44.492;11.372;2022-07-23T06:31:27;33.70;29.10
18085;DHT22;9169;44.492;11.372;2022-07-23T06:33:55;33.70;29.00
18085;DHT22;9169;44.492;11.372;2022-07-23T06:36:22;33.70;29.10
18085;DHT22;9169;44.492;11.372;2022-07-23T06:38:49;33.70;29.00
18085;DHT22;9169;44.492;11.372;2022-07-23T06:41:15;33.70;28.80
18085;DHT22;9169;44.492;11.372;2022-07-23T06:43:42;33.70;28.70
18085;DHT22;9169;44.492;11.372;2022-07-23T06:46:09;33.80;28.50
18085;DHT22;9169;44.492;11.372;2022-07-23T06:48:36;33.90;28.50
18085;DHT22;9169;44.492;11.372;2022-07-23T06:51:04;33.90;28.60
18085;DHT22;9169;44.492;11.372;2022-07-23T06:53:31;34.00;28.60
18085;DHT22;9169;44.492;11.372;2022-07-23T06:55:58;34.10;28.80
18085;DHT22;9169;44.492;11.372;2022-07-23T06:58:25;34.10;29.00
18085;DHT22;9169;44.492;11.372;2022-07-23T07:00:51;34.10;29.00
18085;DHT22;9169;44.492;11.372;2022-07-23T07:03:18;34.10;28.80
18085;DHT22;9169;44.492;11.372;2022-07-23T07:05:45;34.20;28.70
18085;DHT22;9169;44.492;11.372;2022-07-23T07:08:13;34.20;28.50
18085;DHT22;9169;44.492;11.372;2022-07-23T07:10:40;34.30;28.70
18085;DHT22;9169;44.492;11.372;2022-07-23T07:13:07;34.40;28.60
18085;DHT22;9169;44.492;11.372;2022-07-23T07:15:34;34.40;28.80
18085;DHT22;9169;44.492;11.372;2022-07-23T07:18:01;34.40;28.60
18085;DHT22;9169;44.492;11.372;2022-07-23T07:20:27;34.40;28.50
18085;DHT22;9169;44.492;11.372;2022-07-23T07:22:54;34.50;28.60
18085;DHT22;9169;44.492;11.372;2022-07-23T07:25:22;34.60;28.70
18085;DHT22;9169;44.492;11.372;2022-07-23T07:27:49;34.60;28.60
18085;DHT22;9169;44.492;11.372;2022-07-23T07:30:16;34.60;28.50
18085;DHT22;9169;44.492;11.372;2022-07-23T07:32:43;34.70;28.60
18085;DHT22;9169;44.492;11.372;2022-07-23T07:35:09;34.70;28.60
18085;DHT22;9169;44.492;11.372;2022-07-23T07:37:36;34.70;28.80
18085;DHT22;9169;44.492;11.372;2022-07-23T07:40:03;34.70;28.60
18085;DHT22;9169;44.492;11.372;2022-07-23T07:42:31;34.80;28.50
18085;DHT22;9169;44.492;11.372;2022-07-23T07:44:58;34.80;28.50
18085;DHT22;9169;44.492;11.372;2022-07-23T07:47:25;34.80;28.60
18085;DHT22;9169;44.492;11.372;2022-07-23T07:49:52;34.90;28.40
18085;DHT22;9169;44.492;11.372;2022-07-23T07:52:19;34.90;28.40
18085;DHT22;9169;44.492;11.372;2022-07-23T07:54:45;34.90;28.30
18085;DHT22;9169;44.492;11.372;2022-07-23T07:57:12;35.00;28.30
18085;DHT22;9169;44.492;11.372;2022-07-23T07:59:40;35.00;28.20
18085;DHT22;9169;44.492;11.372;2022-07-23T08:02:07;35.10;28.10
18085;DHT22;9169;44.492;11.372;2022-07-23T08:04:34;35.20;28.10
18085;DHT22;9169;44.492;11.372;2022-07-23T08:07:01;35.30;28.00
18085;DHT22;9169;44.492;11.372;2022-07-23T08:09:27;35.30;27.90
18085;DHT22;9169;44.492;11.372;2022-07-23T08:11:54;35.40;27.90
18085;DHT22;9169;44.492;11.372;2022-07-23T08:14:21;35.50;27.90
18085;DHT22;9169;44.492;11.372;2022-07-23T08:16:49;35.60;27.90
18085;DHT22;9169;44.492;11.372;2022-07-23T08:19:16;35.60;27.80
18085;DHT22;9169;44.492;11.372;2022-07-23T08:21:43;35.70;27.80
18085;DHT22;9169;44.492;11.372;2022-07-23T08:24:10;35.80;27.80
18085;DHT22;9169;44.492;11.372;2022-07-23T08:26:37;35.90;27.80
18085;DHT22;9169;44.492;11.372;2022-07-23T08:29:03;35.90;27.80
18085;DHT22;9169;44.492;11.372;2022-07-23T08:31:30;35.90;27.80
18085;DHT22;9169;44.492;11.372;2022-07-23T08:33:59;35.90;27.80
18085;DHT22;9169;44.492;11.372;2022-07-23T08:36:27;35.90;27.80
18085;DHT22;9169;44.492;11.372;2022-07-23T08:38:57;36.00;27.90
18085;DHT22;9169;44.492;11.372;2022-07-23T08:41:24;36.00;27.80
18085;DHT22;9169;44.492;11.372;2022-07-23T08:43:51;36.00;27.80
18085;DHT22;9169;44.492;11.372;2022-07-23T08:46:17;36.10;27.80
18085;DHT22;9169;44.492;11.372;2022-07-23T08:48:47;36.10;28.30
18085;DHT22;9169;44.492;11.372;2022-07-23T08:51:15;36.20;28.10
18085;DHT22;9169;44.492;11.372;2022-07-23T08:53:42;36.20;28.00
18085;DHT22;9169;44.492;11.372;2022-07-23T08:56:09;36.20;28.00
18085;DHT22;9169;44.492;11.372;2022-07-23T08:58:36;36.30;28.00
18085;DHT22;9169;44.492;11.372;2022-07-23T09:01:03;36.30;27.90
18085;DHT22;9169;44.492;11.372;2022-07-23T09:03:30;36.30;27.80
18085;DHT22;9169;44.492;11.372;2022-07-23T09:05:58;36.40;27.80
18085;DHT22;9169;44.492;11.372;2022-07-23T09:08:34;36.40;27.60
18085;DHT22;9169;44.492;11.372;2022-07-23T09:11:02;36.50;27.50
18085;DHT22;9169;44.492;11.372;2022-07-23T09:13:33;36.60;27.40
18085;DHT22;9169;44.492;11.372;2022-07-23T09:16:01;36.70;27.30
18085;DHT22;9169;44.492;11.372;2022-07-23T09:18:29;36.80;27.20
18085;DHT22;9169;44.492;11.372;2022-07-23T09:21:09;36.90;27.20
18085;DHT22;9169;44.492;11.372;2022-07-23T09:23:38;37.10;27.20
18085;DHT22;9169;44.492;11.372;2022-07-23T09:26:15;37.20;27.20
18085;DHT22;9169;44.492;11.372;2022-07-23T09:28:53;37.40;27.10
18085;DHT22;9169;44.492;11.372;2022-07-23T09:31:20;37.50;27.10
18085;DHT22;9169;44.492;11.372;2022-07-23T09:33:50;37.60;27.00
18085;DHT22;9169;44.492;11.372;2022-07-23T09:36:26;37.70;26.90
18085;DHT22;9169;44.492;11.372;2022-07-23T09:38:55;37.90;27.10
18085;DHT22;9169;44.492;11.372;2022-07-23T09:41:21;37.90;27.00
18085;DHT22;9169;44.492;11.372;2022-07-23T09:43:54;38.10;26.90
18085;DHT22;9169;44.492;11.372;2022-07-23T09:46:21;38.20;26.80
18085;DHT22;9169;44.492;11.372;2022-07-23T09:48:49;38.20;27.20
18085;DHT22;9169;44.492;11.372;2022-07-23T09:51:16;38.40;26.70
18085;DHT22;9169;44.492;11.372;2022-07-23T09:53:45;38.40;26.40
18085;DHT22;9169;44.492;11.372;2022-07-23T09:56:14;38.50;26.30
18085;DHT22;9169;44.492;11.372;2022-07-23T09:58:41;38.50;26.40
18085;DHT22;9169;44.492;11.372;2022-07-23T10:01:14;38.60;26.30
18085;DHT22;9169;44.492;11.372;2022-07-23T10:03:42;38.70;26.00
18085;DHT22;9169;44.492;11.372;2022-07-23T10:06:09;38.70;26.20
18085;DHT22;9169;44.492;11.372;2022-07-23T10:08:37;38.80;26.10
18085;DHT22;9169;44.492;11.372;2022-07-23T10:11:05;38.90;26.20
18085;DHT22;9169;44.492;11.372;2022-07-23T10:13:34;39.00;25.80
18085;DHT22;9169;44.492;11.372;2022-07-23T10:16:20;39.10;26.10
18085;DHT22;9169;44.492;11.372;2022-07-23T10:18:47;39.20;26.10
18085;DHT22;9169;44.492;11.372;2022-07-23T10:21:16;39.30;26.00
18085;DHT22;9169;44.492;11.372;2022-07-23T10:23:45;39.40;25.90
18085;DHT22;9169;44.492;11.372;2022-07-23T10:26:17;39.50;26.00
18085;DHT22;9169;44.492;11.372;2022-07-23T10:31:38;39.70;25.90
18085;DHT22;9169;44.492;11.372;2022-07-23T10:34:10;39.80;26.00
18085;DHT22;9169;44.492;11.372;2022-07-23T10:36:39;39.90;26.00
18085;DHT22;9169;44.492;11.372;2022-07-23T10:39:11;40.00;25.80
18085;DHT22;9169;44.492;11.372;2022-07-23T10:41:40;40.00;25.90
18085;DHT22;9169;44.492;11.372;2022-07-23T10:44:09;40.10;25.90
18085;DHT22;9169;44.492;11.372;2022-07-23T10:46:37;40.40;26.10
18085;DHT22;9169;44.492;11.372;2022-07-23T10:49:22;40.50;26.10
18085;DHT22;9169;44.492;11.372;2022-07-23T10:54:35;40.90;26.20
18085;DHT22;9169;44.492;11.372;2022-07-23T10:57:05;41.20;26.00
18085;DHT22;9169;44.492;11.372;2022-07-23T11:02:23;42.20;25.60
18085;DHT22;9169;44.492;11.372;2022-07-23T11:04:51;42.90;25.50
18085;DHT22;9169;44.492;11.372;2022-07-23T11:07:18;44.10;25.50
18085;DHT22;9169;44.492;11.372;2022-07-23T11:09:45;45.20;24.80
18085;DHT22;9169;44.492;11.372;2022-07-23T11:12:31;46.20;24.50
18085;DHT22;9169;44.492;11.372;2022-07-23T11:14:59;47.10;23.50
18085;DHT22;9169;44.492;11.372;2022-07-23T11:17:28;47.70;23.30
18085;DHT22;9169;44.492;11.372;2022-07-23T11:20:14;48.20;23.10
18085;DHT22;9169;44.492;11.372;2022-07-23T11:22:47;49.10;22.80
18085;DHT22;9169;44.492;11.372;2022-07-23T11:25:14;50.00;22.60
18085;DHT22;9169;44.492;11.372;2022-07-23T11:27:55;50.60;22.20
18085;DHT22;9169;44.492;11.372;2022-07-23T11:30:37;51.10;22.20
18085;DHT22;9169;44.492;11.372;2022-07-23T11:33:16;51.90;22.30
18085;DHT22;9169;44.492;11.372;2022-07-23T11:35:44;52.80;21.90
18085;DHT22;9169;44.492;11.372;2022-07-23T11:38:13;53.20;21.80
18085;DHT22;9169;44.492;11.372;2022-07-23T11:40:40;53.20;21.20
18085;DHT22;9169;44.492;11.372;2022-07-23T11:43:08;53.20;21.60
18085;DHT22;9169;44.492;11.372;2022-07-23T11:45:36;53.40;21.80
18085;DHT22;9169;44.492;11.372;2022-07-23T11:48:04;53.80;21.60
18085;DHT22;9169;44.492;11.372;2022-07-23T11:50:33;53.80;21.40
18085;DHT22;9169;44.492;11.372;2022-07-23T11:53:00;53.70;21.10
18085;DHT22;9169;44.492;11.372;2022-07-23T11:55:27;53.90;20.50
18085;DHT22;9169;44.492;11.372;2022-07-23T11:57:54;53.90;21.00
18085;DHT22;9169;44.492;11.372;2022-07-23T12:00:22;53.80;20.50
18085;DHT22;9169;44.492;11.372;2022-07-23T12:02:50;53.30;21.10
18085;DHT22;9169;44.492;11.372;2022-07-23T12:05:17;52.20;21.00
18085;DHT22;9169;44.492;11.372;2022-07-23T12:07:46;51.20;21.80
18085;DHT22;9169;44.492;11.372;2022-07-23T12:10:16;50.30;21.90
18085;DHT22;9169;44.492;11.372;2022-07-23T12:12:43;50.10;22.50
18085;DHT22;9169;44.492;11.372;2022-07-23T12:15:10;50.50;22.30
18085;DHT22;9169;44.492;11.372;2022-07-23T12:17:37;51.20;22.40
18085;DHT22;9169;44.492;11.372;2022-07-23T12:20:06;52.10;22.40
18085;DHT22;9169;44.492;11.372;2022-07-23T12:22:34;52.90;21.80
18085;DHT22;9169;44.492;11.372;2022-07-23T12:25:03;53.20;20.50
18085;DHT22;9169;44.492;11.372;2022-07-23T12:27:30;53.50;21.30
18085;DHT22;9169;44.492;11.372;2022-07-23T12:29:57;53.90;21.80
18085;DHT22;9169;44.492;11.372;2022-07-23T12:32:25;54.40;21.10
18085;DHT22;9169;44.492;11.372;2022-07-23T12:35:02;54.80;21.00
18085;DHT22;9169;44.492;11.372;2022-07-23T12:37:30;55.10;21.10
18085;DHT22;9169;44.492;11.372;2022-07-23T12:39:56;55.50;21.10
18085;DHT22;9169;44.492;11.372;2022-07-23T12:42:25;55.30;19.60
18085;DHT22;9169;44.492;11.372;2022-07-23T12:45:07;55.10;20.10
18085;DHT22;9169;44.492;11.372;2022-07-23T12:47:50;55.10;20.50
18085;DHT22;9169;44.492;11.372;2022-07-23T12:50:32;55.30;20.80
18085;DHT22;9169;44.492;11.372;2022-07-23T12:53:09;55.50;20.90
18085;DHT22;9169;44.492;11.372;2022-07-23T12:55:36;55.90;20.80
18085;DHT22;9169;44.492;11.372;2022-07-23T12:58:06;56.10;20.80
18085;DHT22;9169;44.492;11.372;2022-07-23T13:00:48;56.10;20.50
18085;DHT22;9169;44.492;11.372;2022-07-23T13:03:22;56.10;19.90
18085;DHT22;9169;44.492;11.372;2022-07-23T13:05:48;55.70;20.30
18085;DHT22;9169;44.492;11.372;2022-07-23T13:08:15;55.80;20.30
18085;DHT22;9169;44.492;11.372;2022-07-23T13:10:42;55.70;20.40
18085;DHT22;9169;44.492;11.372;2022-07-23T13:13:13;55.90;20.80
18085;DHT22;9169;44.492;11.372;2022-07-23T13:15:40;56.00;20.70
18085;DHT22;9169;44.492;11.372;2022-07-23T13:18:07;56.20;20.40
18085;DHT22;9169;44.492;11.372;2022-07-23T13:20:34;56.00;20.50
18085;DHT22;9169;44.492;11.372;2022-07-23T13:23:04;55.90;20.20
18085;DHT22;9169;44.492;11.372;2022-07-23T13:25:30;55.80;20.60
18085;DHT22;9169;44.492;11.372;2022-07-23T13:27:57;56.00;20.90
18085;DHT22;9169;44.492;11.372;2022-07-23T13:30:25;56.20;19.90
18085;DHT22;9169;44.492;11.372;2022-07-23T13:32:52;55.90;20.00
18085;DHT22;9169;44.492;11.372;2022-07-23T13:35:19;55.80;20.60
18085;DHT22;9169;44.492;11.372;2022-07-23T13:37:46;55.90;20.50
18085;DHT22;9169;44.492;11.372;2022-07-23T13:40:13;55.90;20.20
18085;DHT22;9169;44.492;11.372;2022-07-23T13:42:40;55.70;19.40
18085;DHT22;9169;44.492;11.372;2022-07-23T13:45:07;55.60;20.10
18085;DHT22;9169;44.492;11.372;2022-07-23T13:47:35;55.50;20.60
18085;DHT22;9169;44.492;11.372;2022-07-23T13:50:02;55.80;20.80
18085;DHT22;9169;44.492;11.372;2022-07-23T13:52:29;55.50;20.30
18085;DHT22;9169;44.492;11.372;2022-07-23T13:54:58;55.80;20.80
18085;DHT22;9169;44.492;11.372;2022-07-23T13:57:25;55.90;20.90
18085;DHT22;9169;44.492;11.372;2022-07-23T13:59:52;56.10;20.80
18085;DHT22;9169;44.492;11.372;2022-07-23T14:02:18;56.10;21.00
18085;DHT22;9169;44.492;11.372;2022-07-23T14:04:47;56.30;20.90
18085;DHT22;9169;44.492;11.372;2022-07-23T14:07:13;56.20;20.20
18085;DHT22;9169;44.492;11.372;2022-07-23T14:09:40;55.80;20.20
18085;DHT22;9169;44.492;11.372;2022-07-23T14:12:07;55.70;20.70
18085;DHT22;9169;44.492;11.372;2022-07-23T14:14:34;55.60;20.60
18085;DHT22;9169;44.492;11.372;2022-07-23T14:17:01;55.20;19.90
18085;DHT22;9169;44.492;11.372;2022-07-23T14:19:28;54.90;20.70
18085;DHT22;9169;44.492;11.372;2022-07-23T14:21:56;54.80;20.60
18085;DHT22;9169;44.492;11.372;2022-07-23T14:24:23;54.90;21.00
18085;DHT22;9169;44.492;11.372;2022-07-23T14:26:50;54.90;20.70
18085;DHT22;9169;44.492;11.372;2022-07-23T14:29:17;54.70;20.20
18085;DHT22;9169;44.492;11.372;2022-07-23T14:31:44;54.30;20.50
18085;DHT22;9169;44.492;11.372;2022-07-23T14:34:11;53.60;20.70
18085;DHT22;9169;44.492;11.372;2022-07-23T14:36:38;52.90;20.70
18085;DHT22;9169;44.492;11.372;2022-07-23T14:39:06;52.20;20.50
18085;DHT22;9169;44.492;11.372;2022-07-23T14:41:34;51.40;21.10
18085;DHT22;9169;44.492;11.372;2022-07-23T14:44:04;51.00;21.60
18085;DHT22;9169;44.492;11.372;2022-07-23T14:46:31;50.90;21.80
18085;DHT22;9169;44.492;11.372;2022-07-23T14:48:58;51.10;21.80
18085;DHT22;9169;44.492;11.372;2022-07-23T14:51:25;51.30;21.60
18085;DHT22;9169;44.492;11.372;2022-07-23T14:53:52;51.10;21.60
18085;DHT22;9169;44.492;11.372;2022-07-23T14:56:21;50.90;21.20
18085;DHT22;9169;44.492;11.372;2022-07-23T14:58:48;50.00;21.80
18085;DHT22;9169;44.492;11.372;2022-07-23T15:01:14;49.50;22.60
18085;DHT22;9169;44.492;11.372;2022-07-23T15:03:41;48.70;21.80
18085;DHT22;9169;44.492;11.372;2022-07-23T15:06:08;48.30;22.00
18085;DHT22;9169;44.492;11.372;2022-07-23T15:08:35;48.10;22.20
18085;DHT22;9169;44.492;11.372;2022-07-23T15:11:03;48.00;22.40
18085;DHT22;9169;44.492;11.372;2022-07-23T15:13:31;48.20;22.50
18085;DHT22;9169;44.492;11.372;2022-07-23T15:15:58;48.20;22.40
18085;DHT22;9169;44.492;11.372;2022-07-23T15:18:25;48.20;21.90
18085;DHT22;9169;44.492;11.372;2022-07-23T15:20:52;48.20;21.60
18085;DHT22;9169;44.492;11.372;2022-07-23T15:23:19;48.20;22.20
18085;DHT22;9169;44.492;11.372;2022-07-23T15:25:45;48.30;22.00
18085;DHT22;9169;44.492;11.372;2022-07-23T15:28:12;48.30;22.30
18085;DHT22;9169;44.492;11.372;2022-07-23T15:30:40;48.20;22.30
18085;DHT22;9169;44.492;11.372;2022-07-23T15:33:07;48.00;22.40
18085;DHT22;9169;44.492;11.372;2022-07-23T15:35:34;47.70;22.30
18085;DHT22;9169;44.492;11.372;2022-07-23T15:38:01;47.40;22.50
18085;DHT22;9169;44.492;11.372;2022-07-23T15:40:28;47.20;22.70
18085;DHT22;9169;44.492;11.372;2022-07-23T15:42:55;47.00;22.70